createdAt,value
2023-04-20T00:00:09.559Z,75.23
2023-04-20T00:02:42.743Z,75.28
2023-04-20T00:05:12.654Z,75.49
2023-04-20T00:07:41.833Z,75.21
2023-04-20T00:10:11.021Z,75.32
2023-04-20T00:12:39.538Z,75.19
2023-04-20T00:15:08.979Z,75.62
2023-04-20T00:17:39.489Z,75.40
2023-04-20T00:20:10.834Z,75.47
2023-04-20T00:22:39.735Z,75.62
2023-04-20T00:25:09.257Z,75.70
2023-04-20T00:27:37.938Z,75.80
2023-04-20T00:30:07.494Z,76.06
2023-04-20T00:32:36.154Z,75.98
2023-04-20T00:35:05.014Z,75.87
2023-04-20T00:37:34.915Z,75.56
2023-04-20T00:40:04.105Z,75.61
2023-04-20T00:42:32.878Z,75.93
2023-04-20T00:45:01.477Z,75.92
2023-04-20T00:47:30.174Z,75.84
2023-04-20T00:49:58.872Z,76.02
2023-04-20T00:52:28.466Z,76.17
2023-04-20T00:55:02.035Z,76.14
2023-04-20T00:57:32.155Z,76.30
2023-04-20T01:00:06.607Z,76.47
2023-04-20T01:02:35.452Z,75.96
2023-04-20T01:05:04.201Z,76.21
2023-04-20T01:07:32.952Z,76.34
2023-04-20T01:10:02.889Z,76.48
2023-04-20T01:12:32.034Z,76.81
2023-04-20T01:15:00.823Z,76.97
2023-04-20T01:17:29.357Z,77.10
2023-04-20T01:20:00.097Z,77.09
2023-04-20T01:22:31.151Z,77.57
2023-04-20T01:24:59.919Z,77.42
2023-04-20T01:27:28.631Z,77.53
2023-04-20T01:29:57.396Z,77.58
2023-04-20T01:32:26.003Z,77.75
2023-04-20T01:34:56.151Z,77.93
2023-04-20T01:37:24.739Z,77.92
2023-04-20T01:39:54.886Z,78.27
2023-04-20T01:42:24.244Z,78.31
2023-04-20T01:44:52.738Z,78.62
2023-04-20T01:47:21.237Z,78.56
2023-04-20T01:49:49.775Z,78.86
2023-04-20T01:52:19.789Z,78.84
2023-04-20T01:54:50.456Z,78.78
2023-04-20T01:57:20.286Z,78.99
2023-04-20T01:59:48.884Z,79.35
2023-04-20T02:02:17.563Z,79.11
2023-04-20T02:04:46.154Z,79.42
2023-04-20T02:07:14.632Z,79.86
2023-04-20T02:09:43.170Z,80.04
2023-04-20T02:12:11.819Z,79.93
2023-04-20T02:14:42.827Z,80.03
2023-04-20T02:17:12.226Z,80.49
2023-04-20T02:19:41.041Z,80.64
2023-04-20T02:22:09.546Z,80.58
2023-04-20T02:24:38.121Z,80.86
2023-04-20T02:27:06.694Z,81.00
2023-04-20T02:29:35.596Z,81.08
2023-04-20T02:32:07.851Z,81.39
2023-04-20T02:34:36.416Z,81.53
2023-04-20T02:37:04.954Z,81.64
2023-04-20T02:39:33.549Z,82.04
2023-04-20T02:42:02.088Z,81.92
2023-04-20T02:44:31.155Z,81.96
2023-04-20T02:46:59.711Z,82.14
2023-04-20T02:49:29.711Z,82.18
2023-04-20T02:51:59.421Z,82.31
2023-04-20T02:54:28.169Z,82.51
2023-04-20T02:56:58.081Z,82.68
2023-04-20T02:59:27.877Z,83.18
2023-04-20T03:02:04.580Z,83.01
2023-04-20T03:04:34.518Z,83.30
2023-04-20T03:07:17.896Z,83.48
2023-04-20T03:09:47.112Z,83.57
2023-04-20T03:12:22.459Z,83.65
2023-04-20T03:14:57.391Z,84.26
2023-04-20T03:17:37.903Z,84.19
2023-04-20T03:20:09.929Z,84.49
2023-04-20T03:22:38.961Z,84.68
2023-04-20T03:25:09.435Z,85.08
2023-04-20T03:27:53.053Z,85.25
2023-04-20T03:30:22.057Z,85.84
2023-04-20T03:32:56.131Z,86.26
2023-04-20T03:35:26.115Z,86.30
2023-04-20T03:37:54.699Z,86.65
2023-04-20T03:40:23.763Z,86.95
2023-04-20T03:42:52.368Z,87.32
2023-04-20T03:45:21.084Z,87.41
2023-04-20T03:47:51.252Z,87.69
2023-04-20T03:50:19.872Z,88.17
2023-04-20T03:52:49.694Z,88.54
2023-04-20T03:55:18.430Z,88.88
2023-04-20T03:57:52.705Z,90.37
2023-04-20T04:00:21.468Z,89.26
2023-04-20T04:02:50.159Z,89.75
2023-04-20T04:05:26.804Z,89.75
2023-04-20T04:07:56.904Z,90.36
2023-04-20T04:10:25.449Z,90.42
2023-04-20T04:12:54.145Z,91.01
2023-04-20T04:15:23.326Z,91.26
2023-04-20T04:17:59.747Z,91.75
2023-04-20T04:20:28.774Z,91.99
2023-04-20T04:22:58.904Z,92.87
2023-04-20T04:25:51.200Z,93.29
2023-04-20T04:28:24.776Z,94.04
2023-04-20T04:31:06.166Z,94.41
2023-04-20T04:33:36.037Z,95.21
2023-04-20T04:36:07.146Z,95.44
2023-04-20T04:38:38.010Z,96.05
2023-04-20T04:41:07.335Z,96.56
2023-04-20T04:43:36.988Z,96.38
2023-04-20T04:46:14.516Z,97.17
2023-04-20T04:48:43.562Z,97.47
2023-04-20T04:51:12.689Z,97.83
2023-04-20T04:53:45.158Z,97.97
2023-04-20T04:56:14.253Z,98.40
2023-04-20T04:58:42.804Z,98.75
2023-04-20T05:01:11.340Z,99.56
2023-04-20T05:03:40.013Z,99.08
2023-04-20T05:06:08.983Z,99.19
2023-04-20T05:08:38.365Z,99.98
2023-04-20T05:11:08.674Z,100.00
2023-04-20T05:13:37.201Z,100.00
2023-04-20T05:16:06.572Z,99.83
2023-04-20T05:18:35.068Z,99.92
2023-04-20T05:21:03.732Z,99.96
2023-04-20T05:23:32.173Z,100.00
2023-04-20T05:26:00.657Z,100.00
2023-04-20T05:28:30.509Z,100.00
2023-04-20T05:30:58.938Z,100.00
2023-04-20T05:33:27.723Z,100.00
2023-04-20T05:35:57.754Z,100.00
2023-04-20T05:38:26.398Z,100.00
2023-04-20T05:40:54.846Z,100.00
2023-04-20T05:43:23.322Z,100.00
2023-04-20T05:45:53.241Z,100.00
2023-04-20T05:48:21.699Z,100.00
2023-04-20T05:50:50.178Z,100.00
2023-04-20T05:53:18.681Z,100.00
2023-04-20T05:55:47.246Z,100.00
2023-04-20T05:58:16.287Z,100.00
2023-04-20T06:00:45.124Z,100.00
2023-04-20T06:03:15.036Z,100.00
2023-04-20T06:05:43.715Z,100.00
2023-04-20T06:08:12.641Z,100.00
2023-04-20T06:10:41.390Z,100.00
2023-04-20T06:13:09.888Z,100.00
2023-04-20T06:15:38.416Z,100.00
2023-04-20T06:18:07.118Z,100.00
2023-04-20T06:20:39.140Z,100.00
2023-04-20T06:23:07.589Z,100.00
2023-04-20T06:25:37.191Z,100.00
2023-04-20T06:28:06.303Z,100.00
2023-04-20T06:30:35.396Z,100.00
2023-04-20T06:33:04.715Z,100.00
2023-04-20T06:35:33.240Z,100.00
2023-04-20T06:38:03.185Z,100.00
2023-04-20T06:40:31.747Z,100.00
2023-04-20T06:43:00.273Z,100.00
2023-04-20T06:45:28.814Z,100.00
2023-04-20T06:47:57.290Z,100.00
2023-04-20T06:50:26.108Z,100.00
2023-04-20T06:52:54.610Z,100.00
2023-04-20T06:55:24.532Z,100.00
2023-04-20T06:57:53.179Z,100.00
2023-04-20T07:00:22.100Z,100.00
2023-04-20T07:02:52.012Z,100.00
2023-04-20T07:05:21.122Z,100.00
2023-04-20T07:07:49.781Z,100.00
2023-04-20T07:10:18.444Z,100.00
2023-04-20T07:12:50.637Z,100.00
2023-04-20T07:15:19.029Z,100.00
2023-04-20T07:17:47.527Z,100.00
2023-04-20T07:20:16.022Z,100.00
2023-04-20T07:22:44.541Z,100.00
2023-04-20T07:25:12.971Z,100.00
2023-04-20T07:27:42.247Z,100.00
2023-04-20T07:30:12.622Z,100.00
2023-04-20T07:32:42.298Z,100.00
2023-04-20T07:35:11.500Z,100.00
2023-04-20T07:37:40.776Z,100.00
2023-04-20T07:40:10.682Z,100.00
2023-04-20T07:42:39.322Z,100.00
2023-04-20T07:45:08.913Z,100.00
2023-04-20T07:47:39.327Z,100.00
2023-04-20T07:50:11.284Z,100.00
2023-04-20T07:52:39.758Z,100.00
2023-04-20T07:55:14.067Z,100.00
2023-04-20T07:57:42.629Z,100.00
2023-04-20T08:00:12.938Z,100.00
2023-04-20T08:02:43.034Z,100.00
2023-04-20T08:05:11.840Z,100.00
2023-04-20T08:07:40.895Z,100.00
2023-04-20T08:10:10.562Z,100.00
2023-04-20T08:12:39.741Z,100.00
2023-04-20T08:15:10.040Z,100.00
2023-04-20T08:17:38.442Z,100.00
2023-04-20T08:20:10.693Z,100.00
2023-04-20T08:22:39.973Z,100.00
2023-04-20T08:25:09.056Z,100.00
2023-04-20T08:27:37.453Z,100.00
2023-04-20T08:30:07.890Z,100.00
2023-04-20T08:32:36.311Z,100.00
2023-04-20T08:35:05.529Z,100.00
2023-04-20T08:37:35.385Z,100.00
2023-04-20T08:40:05.696Z,100.00
2023-04-20T08:42:34.318Z,100.00
2023-04-20T08:45:02.855Z,100.00
2023-04-20T08:47:32.449Z,100.00
2023-04-20T08:50:01.847Z,100.00
2023-04-20T08:52:30.327Z,100.00
2023-04-20T08:55:00.287Z,100.00
2023-04-20T08:57:28.769Z,100.00
2023-04-20T08:59:58.507Z,100.00
2023-04-20T09:02:27.090Z,100.00
2023-04-20T09:05:05.742Z,100.00
2023-04-20T09:07:34.342Z,100.00
2023-04-20T09:10:04.634Z,100.00
2023-04-20T09:12:42.438Z,100.00
2023-04-20T09:15:11.874Z,100.00
2023-04-20T09:17:41.480Z,100.00
2023-04-20T09:20:11.395Z,100.00
2023-04-20T09:22:40.166Z,100.00
2023-04-20T09:25:16.669Z,100.00
2023-04-20T09:27:45.051Z,100.00
2023-04-20T09:30:14.222Z,100.00
2023-04-20T09:32:42.774Z,100.00
2023-04-20T09:35:11.346Z,100.00
2023-04-20T09:37:48.517Z,100.00
2023-04-20T09:40:21.915Z,100.00
2023-04-20T09:42:51.949Z,100.00
2023-04-20T09:45:20.631Z,100.00
2023-04-20T09:47:50.459Z,100.00
2023-04-20T09:50:26.644Z,100.00
2023-04-20T09:52:58.263Z,100.00
2023-04-20T09:55:28.681Z,100.00
2023-04-20T09:57:58.909Z,100.00
2023-04-20T10:00:27.357Z,100.00
2023-04-20T10:02:56.110Z,100.00
2023-04-20T10:05:34.193Z,100.00
2023-04-20T10:08:02.830Z,100.00
2023-04-20T10:10:43.721Z,100.00
2023-04-20T10:13:12.356Z,100.00
2023-04-20T10:15:42.354Z,100.00
2023-04-20T10:18:18.756Z,100.00
2023-04-20T10:20:47.834Z,100.00
2023-04-20T10:23:18.613Z,100.00
2023-04-20T10:25:59.357Z,100.00
2023-04-20T10:28:39.748Z,100.00
2023-04-20T10:31:13.042Z,100.00
2023-04-20T10:33:52.375Z,100.00
2023-04-20T10:36:28.998Z,100.00
2023-04-20T10:38:57.780Z,100.00
2023-04-20T10:41:28.010Z,100.00
2023-04-20T10:43:56.526Z,100.00
2023-04-20T10:46:26.219Z,100.00
2023-04-20T10:48:56.011Z,100.00
2023-04-20T10:51:24.947Z,100.00
2023-04-20T10:54:04.952Z,100.00
2023-04-20T10:56:43.063Z,100.00
2023-04-20T10:59:13.389Z,100.00
2023-04-20T11:01:42.707Z,100.00
2023-04-20T11:04:12.207Z,100.00
2023-04-20T11:06:41.950Z,100.00
2023-04-20T11:09:21.145Z,100.00
2023-04-20T11:12:02.029Z,100.00
2023-04-20T11:14:31.126Z,100.00
2023-04-20T11:16:59.848Z,100.00
2023-04-20T11:19:29.512Z,100.00
2023-04-20T11:21:58.199Z,100.00
2023-04-20T11:24:28.796Z,100.00
2023-04-20T11:26:58.072Z,100.00
2023-04-20T11:29:33.148Z,100.00
2023-04-20T11:32:04.049Z,100.00
2023-04-20T11:34:33.405Z,100.00
2023-04-20T11:37:05.338Z,100.00
2023-04-20T11:39:33.887Z,100.00
2023-04-20T11:42:02.561Z,100.00
2023-04-20T11:44:32.909Z,100.00
2023-04-20T11:47:01.822Z,100.00
2023-04-20T11:49:30.865Z,100.00
2023-04-20T11:51:59.402Z,100.00
2023-04-20T11:54:29.814Z,100.00
2023-04-20T11:56:59.049Z,100.00
2023-04-20T11:59:27.616Z,100.00
2023-04-20T12:01:57.617Z,100.00
2023-04-20T12:04:26.409Z,100.00
2023-04-20T12:06:55.113Z,100.00
2023-04-20T12:09:23.585Z,100.00
2023-04-20T12:11:52.262Z,100.00
2023-04-20T12:14:21.022Z,100.00
2023-04-20T12:16:49.915Z,100.00
2023-04-20T12:19:21.249Z,100.00
2023-04-20T12:21:49.876Z,100.00
2023-04-20T12:24:18.697Z,100.00
2023-04-20T12:26:47.169Z,100.00
2023-04-20T12:29:16.602Z,100.00
2023-04-20T12:31:45.689Z,100.00
2023-04-20T12:34:14.144Z,100.00
2023-04-20T12:36:43.916Z,100.00
2023-04-20T12:39:12.333Z,100.00
2023-04-20T12:41:42.375Z,100.00
2023-04-20T12:44:13.200Z,100.00
2023-04-20T12:46:42.332Z,100.00
2023-04-20T12:49:11.007Z,100.00
2023-04-20T12:51:39.585Z,100.00
2023-04-20T12:54:09.635Z,100.00
2023-04-20T12:56:38.417Z,100.00
2023-04-20T12:59:06.908Z,100.00
2023-04-20T13:01:36.832Z,100.00
2023-04-20T13:04:07.032Z,100.00
2023-04-20T13:06:35.698Z,100.00
2023-04-20T13:09:04.591Z,100.00
2023-04-20T13:11:34.508Z,100.00
2023-04-20T13:14:02.906Z,100.00
2023-04-20T13:16:31.501Z,100.00
2023-04-20T13:19:01.541Z,100.00
2023-04-20T13:21:29.939Z,100.00
2023-04-20T13:23:59.842Z,100.00
2023-04-20T13:26:28.482Z,100.00
2023-04-20T13:28:58.496Z,100.00
2023-04-20T13:31:27.075Z,100.00
2023-04-20T13:33:56.143Z,100.00
2023-04-20T13:36:25.692Z,100.00
2023-04-20T13:38:55.720Z,100.00
2023-04-20T13:41:24.651Z,100.00
2023-04-20T13:43:53.206Z,100.00
2023-04-20T13:46:23.175Z,100.00
2023-04-20T13:48:52.050Z,100.00
2023-04-20T13:51:21.799Z,100.00
2023-04-20T13:53:50.822Z,100.00
2023-04-20T13:56:19.928Z,100.00
2023-04-20T13:58:48.500Z,100.00
2023-04-20T14:01:17.375Z,100.00
2023-04-20T14:03:47.339Z,100.00
2023-04-20T14:06:15.924Z,100.00
2023-04-20T14:08:44.594Z,100.00
2023-04-20T14:11:13.010Z,100.00
2023-04-20T14:13:42.075Z,100.00
2023-04-20T14:16:11.392Z,100.00
2023-04-20T14:18:39.890Z,100.00
2023-04-20T14:21:09.924Z,100.00
2023-04-20T14:23:38.562Z,100.00
2023-04-20T14:26:07.370Z,100.00
2023-04-20T14:28:35.939Z,100.00
2023-04-20T14:31:04.510Z,100.00
2023-04-20T14:33:33.110Z,100.00
2023-04-20T14:36:01.523Z,100.00
2023-04-20T14:38:31.326Z,100.00
2023-04-20T14:41:00.669Z,100.00
2023-04-20T14:43:29.056Z,100.00
2023-04-20T14:45:58.705Z,100.00
2023-04-20T14:48:29.766Z,100.00
2023-04-20T14:50:58.703Z,100.00
2023-04-20T14:53:27.148Z,100.00
2023-04-20T14:55:57.241Z,100.00
2023-04-20T14:58:25.702Z,100.00
2023-04-20T15:00:54.217Z,100.00
2023-04-20T15:03:23.153Z,100.00
2023-04-20T15:05:51.989Z,100.00
2023-04-20T15:08:20.900Z,100.00
2023-04-20T15:10:56.320Z,100.00
2023-04-20T15:13:26.804Z,100.00
2023-04-20T15:15:55.545Z,100.00
2023-04-20T15:18:24.633Z,100.00
2023-04-20T15:20:53.527Z,99.97
2023-04-20T15:23:23.070Z,98.71
2023-04-20T15:25:51.712Z,100.00
2023-04-20T15:28:20.221Z,100.00
2023-04-20T15:30:50.035Z,100.00
2023-04-20T15:33:18.492Z,100.00
2023-04-20T15:35:47.028Z,100.00
2023-04-20T15:38:15.451Z,100.00
2023-04-20T15:40:43.892Z,100.00
2023-04-20T15:43:12.455Z,100.00
2023-04-20T15:45:43.381Z,100.00
2023-04-20T15:48:15.710Z,100.00
2023-04-20T15:50:44.156Z,100.00
2023-04-20T15:53:12.507Z,100.00
2023-04-20T15:55:41.065Z,100.00
2023-04-20T15:58:10.751Z,100.00
2023-04-20T16:00:42.050Z,100.00
2023-04-20T16:03:10.635Z,100.00
2023-04-20T16:05:41.112Z,100.00
2023-04-20T16:08:09.772Z,100.00
2023-04-20T16:10:38.216Z,100.00
2023-04-20T16:13:06.631Z,100.00
2023-04-20T16:15:35.304Z,100.00
2023-04-20T16:18:05.393Z,100.00
2023-04-20T16:20:33.999Z,100.00
2023-04-20T16:23:04.055Z,100.00
2023-04-20T16:25:34.256Z,100.00
2023-04-20T16:28:02.946Z,100.00
2023-04-20T16:30:33.083Z,100.00
2023-04-20T16:33:02.310Z,100.00
2023-04-20T16:35:32.239Z,100.00
2023-04-20T16:38:01.124Z,81.81
2023-04-20T16:40:31.006Z,92.96
2023-04-20T16:43:01.762Z,91.86
2023-04-20T16:45:30.371Z,90.77
2023-04-20T16:47:58.922Z,86.52
2023-04-20T16:50:32.578Z,88.05
2023-04-20T16:53:01.249Z,88.41
2023-04-20T16:55:31.978Z,91.09
2023-04-20T16:58:00.841Z,91.47
2023-04-20T17:00:30.172Z,92.68
2023-04-20T17:03:01.256Z,91.27
2023-04-20T17:05:30.151Z,84.10
2023-04-20T17:07:58.989Z,84.30
2023-04-20T17:10:27.553Z,69.60
2023-04-20T17:12:59.895Z,80.90
2023-04-20T17:15:28.571Z,83.76
2023-04-20T17:17:57.258Z,86.71
2023-04-20T17:20:25.954Z,86.79
2023-04-20T17:22:54.449Z,83.54
2023-04-20T17:25:23.136Z,86.13
2023-04-20T17:27:51.662Z,88.25
2023-04-20T17:30:21.512Z,87.62
2023-04-20T17:32:50.042Z,86.78
2023-04-20T17:35:18.577Z,86.82
2023-04-20T17:37:47.189Z,90.12
2023-04-20T17:40:15.816Z,90.10
2023-04-20T17:42:44.232Z,90.47
2023-04-20T17:45:13.144Z,91.37
2023-04-20T17:47:43.213Z,92.31
2023-04-20T17:50:13.538Z,92.82
2023-04-20T17:52:42.199Z,94.09
2023-04-20T17:55:10.953Z,93.85
2023-04-20T17:57:40.513Z,95.73
2023-04-20T18:00:16.881Z,96.00
2023-04-20T18:02:47.365Z,95.30
2023-04-20T18:05:17.079Z,96.25
2023-04-20T18:07:45.774Z,97.21
2023-04-20T18:10:15.709Z,97.76
2023-04-20T18:12:44.977Z,99.07
2023-04-20T18:15:13.886Z,99.64
2023-04-20T18:17:44.433Z,100.00
2023-04-20T18:20:14.554Z,100.00
2023-04-20T18:22:43.392Z,100.00
2023-04-20T18:25:12.229Z,100.00
2023-04-20T18:27:40.872Z,100.00
2023-04-20T18:30:10.597Z,100.00
2023-04-20T18:32:40.479Z,100.00
2023-04-20T18:35:10.534Z,100.00
2023-04-20T18:37:40.551Z,100.00
2023-04-20T18:40:10.353Z,100.00
2023-04-20T18:42:39.066Z,100.00
2023-04-20T18:45:08.842Z,100.00
2023-04-20T18:47:37.573Z,100.00
2023-04-20T18:50:07.256Z,100.00
2023-04-20T18:52:36.219Z,100.00
2023-04-20T18:55:07.102Z,100.00
2023-04-20T18:57:35.915Z,100.00
2023-04-20T19:00:08.372Z,100.00
2023-04-20T19:02:37.927Z,100.00
2023-04-20T19:05:07.829Z,100.00
2023-04-20T19:07:36.409Z,100.00
2023-04-20T19:10:08.080Z,100.00
2023-04-20T19:12:39.145Z,100.00
2023-04-20T19:15:09.835Z,100.00
2023-04-20T19:17:38.752Z,100.00
2023-04-20T19:20:08.918Z,100.00
2023-04-20T19:22:37.581Z,100.00
2023-04-20T19:25:08.908Z,100.00
2023-04-20T19:27:38.374Z,100.00
2023-04-20T19:30:08.746Z,100.00
2023-04-20T19:32:37.561Z,100.00
2023-04-20T19:35:06.845Z,100.00
2023-04-20T19:37:35.716Z,100.00
2023-04-20T19:40:05.699Z,100.00
2023-04-20T19:42:35.773Z,100.00
2023-04-20T19:45:04.645Z,100.00
2023-04-20T19:47:33.456Z,100.00
2023-04-20T19:50:03.887Z,100.00
2023-04-20T19:52:34.403Z,100.00
2023-04-20T19:55:04.156Z,100.00
2023-04-20T19:57:36.211Z,100.00
2023-04-20T20:00:08.573Z,100.00
2023-04-20T20:02:41.673Z,100.00
2023-04-20T20:05:11.179Z,100.00
2023-04-20T20:07:40.292Z,100.00
2023-04-20T20:10:09.394Z,100.00
2023-04-20T20:12:39.719Z,100.00
2023-04-20T20:15:09.153Z,100.00
2023-04-20T20:17:37.803Z,100.00
2023-04-20T20:20:09.828Z,100.00
2023-04-20T20:22:38.973Z,100.00
2023-04-20T20:25:09.029Z,100.00
2023-04-20T20:27:39.172Z,100.00
2023-04-20T20:30:09.452Z,100.00
2023-04-20T20:32:38.499Z,100.00
2023-04-20T20:35:09.477Z,100.00
2023-04-20T20:37:38.918Z,100.00
2023-04-20T20:40:12.326Z,100.00
2023-04-20T20:42:45.085Z,100.00
2023-04-20T20:45:14.388Z,100.00
2023-04-20T20:47:44.530Z,100.00
2023-04-20T20:50:16.085Z,100.00
2023-04-20T20:52:44.987Z,100.00
2023-04-20T20:55:13.988Z,100.00
2023-04-20T20:57:44.452Z,100.00
2023-04-20T21:00:14.083Z,100.00
2023-04-20T21:02:43.233Z,100.00
2023-04-20T21:05:12.222Z,100.00
2023-04-20T21:07:41.269Z,100.00
2023-04-20T21:10:11.798Z,100.00
2023-04-20T21:12:40.484Z,100.00
2023-04-20T21:15:12.415Z,100.00
2023-04-20T21:17:41.126Z,100.00
2023-04-20T21:20:10.817Z,100.00
2023-04-20T21:22:39.829Z,100.00
2023-04-20T21:25:09.172Z,100.00
2023-04-20T21:27:37.807Z,100.00
2023-04-20T21:30:07.144Z,100.00
2023-04-20T21:32:37.239Z,100.00
2023-04-20T21:35:06.429Z,100.00
2023-04-20T21:37:34.992Z,100.00
2023-04-20T21:40:03.850Z,100.00
2023-04-20T21:42:32.390Z,100.00
2023-04-20T21:45:00.884Z,100.00
2023-04-20T21:47:29.598Z,100.00
2023-04-20T21:49:59.632Z,100.00
2023-04-20T21:52:28.222Z,100.00
2023-04-20T21:54:56.710Z,100.00
2023-04-20T21:57:25.345Z,100.00
2023-04-20T21:59:53.956Z,100.00
2023-04-20T22:02:22.521Z,100.00
2023-04-20T22:04:51.196Z,100.00
2023-04-20T22:07:21.284Z,100.00
2023-04-20T22:09:49.896Z,100.00
2023-04-20T22:12:23.498Z,100.00
2023-04-20T22:14:57.527Z,100.00
2023-04-20T22:17:28.992Z,100.00
2023-04-20T22:19:57.996Z,100.00
2023-04-20T22:22:27.852Z,100.00
2023-04-20T22:24:56.361Z,100.00
2023-04-20T22:27:25.072Z,100.00
2023-04-20T22:29:53.596Z,100.00
2023-04-20T22:32:22.178Z,100.00
2023-04-20T22:34:50.878Z,100.00
2023-04-20T22:37:20.693Z,100.00
2023-04-20T22:39:50.532Z,100.00
2023-04-20T22:42:19.878Z,100.00
2023-04-20T22:44:48.675Z,100.00
2023-04-20T22:47:17.185Z,100.00
2023-04-20T22:49:45.675Z,100.00
2023-04-20T22:52:14.165Z,100.00
2023-04-20T22:54:47.859Z,100.00
2023-04-20T22:57:19.201Z,100.00
2023-04-20T22:59:48.791Z,100.00
2023-04-20T23:02:17.441Z,100.00
2023-04-20T23:04:45.985Z,100.00
2023-04-20T23:07:14.486Z,100.00
2023-04-20T23:09:44.060Z,100.00
2023-04-20T23:12:12.529Z,100.00
2023-04-20T23:14:43.826Z,100.00
2023-04-20T23:17:12.490Z,100.00
2023-04-20T23:19:41.130Z,100.00
2023-04-20T23:22:09.830Z,100.00
2023-04-20T23:24:38.427Z,100.00
2023-04-20T23:27:09.340Z,100.00
2023-04-20T23:29:38.045Z,100.00
2023-04-20T23:32:08.139Z,100.00
2023-04-20T23:34:36.868Z,100.00
2023-04-20T23:37:05.488Z,100.00
2023-04-20T23:39:37.541Z,100.00
2023-04-20T23:42:06.429Z,100.00
2023-04-20T23:44:35.023Z,100.00
2023-04-20T23:47:03.586Z,100.00
2023-04-20T23:49:33.752Z,100.00
2023-04-20T23:52:02.281Z,100.00
2023-04-20T23:54:33.061Z,100.00
2023-04-20T23:57:02.733Z,100.00
2023-04-20T23:59:31.300Z,100.00
